createdAt,value
2019-04-03T00:02:04.329Z,18.40
2019-04-03T00:07:11.627Z,18.57
2019-04-03T00:12:18.427Z,18.05
2019-04-03T00:17:25.034Z,18.60
2019-04-03T00:22:31.635Z,21.68
2019-04-03T00:27:38.195Z,18.73
2019-04-03T00:32:44.905Z,17.92
2019-04-03T00:37:53.622Z,20.10
2019-04-03T00:42:59.810Z,18.75
2019-04-03T00:48:06.719Z,21.87
2019-04-03T00:53:13.264Z,20.05
2019-04-03T00:58:36.019Z,21.15
2019-04-03T01:03:42.943Z,18.48
2019-04-03T01:08:49.553Z,22.52
2019-04-03T01:13:56.115Z,19.10
2019-04-03T01:19:05.238Z,22.73
2019-04-03T01:24:11.111Z,20.25
2019-04-03T01:29:17.805Z,23.05
2019-04-03T01:34:24.401Z,19.92
2019-04-03T01:39:30.951Z,22.98
2019-04-03T01:44:37.572Z,22.30
2019-04-03T01:49:44.186Z,24.92
2019-04-03T01:54:50.647Z,22.22
2019-04-03T01:59:57.050Z,26.20
2019-04-03T02:05:04.055Z,24.57
2019-04-03T02:10:18.891Z,26.80
2019-04-03T02:15:25.590Z,23.18
2019-04-03T02:20:32.237Z,19.62
2019-04-03T02:25:38.737Z,24.30
2019-04-03T02:30:46.901Z,29.60
2019-04-03T02:35:54.523Z,26.55
2019-04-03T02:41:03.463Z,27.05
2019-04-03T02:46:09.624Z,31.45
2019-04-03T02:51:18.923Z,34.27
2019-04-03T02:56:24.918Z,31.85
2019-04-03T03:01:31.472Z,29.85
2019-04-03T03:06:38.083Z,26.55
2019-04-03T03:11:44.721Z,25.08
2019-04-03T03:16:52.616Z,28.92
2019-04-03T03:22:03.605Z,30.25
2019-04-03T03:27:11.415Z,26.00
2019-04-03T03:32:28.543Z,23.00
2019-04-03T03:37:27.810Z,28.87
2019-04-03T03:42:35.939Z,24.72
2019-04-03T03:47:44.461Z,25.92
2019-04-03T03:52:51.624Z,25.75
2019-04-03T03:58:00.429Z,24.02
2019-04-03T04:03:10.088Z,22.98
2019-04-03T04:08:15.863Z,33.05
2019-04-03T04:13:22.481Z,24.95
2019-04-03T04:18:29.190Z,31.62
2019-04-03T04:23:36.687Z,24.10
2019-04-03T04:28:43.736Z,25.35
2019-04-03T04:33:50.280Z,31.00
2019-04-03T04:38:57.944Z,25.55
2019-04-03T04:44:05.204Z,23.00
2019-04-03T04:49:12.728Z,28.38
2019-04-03T04:54:19.503Z,27.30
2019-04-03T04:59:26.078Z,25.43
2019-04-03T05:04:32.696Z,26.33
2019-04-03T05:09:40.312Z,26.48
2019-04-03T05:14:48.778Z,28.87
2019-04-03T05:19:55.365Z,22.65
2019-04-03T05:25:03.088Z,23.47
2019-04-03T05:30:10.258Z,32.10
2019-04-03T05:35:17.078Z,31.42
2019-04-03T05:40:25.646Z,31.90
2019-04-03T05:45:34.488Z,30.65
2019-04-03T05:50:41.146Z,30.08
2019-04-03T05:55:47.787Z,28.77
2019-04-03T06:01:04.146Z,27.62
2019-04-03T06:06:02.517Z,32.78
2019-04-03T06:11:09.720Z,32.53
2019-04-03T06:16:17.167Z,35.40
2019-04-03T06:21:24.157Z,32.60
2019-04-03T06:26:30.810Z,30.48
2019-04-03T06:31:37.500Z,29.70
2019-04-03T06:36:44.155Z,28.10
2019-04-03T06:41:50.691Z,30.00
2019-04-03T06:46:58.726Z,34.20
2019-04-03T06:52:05.865Z,38.40
2019-04-03T06:57:13.867Z,31.37
2019-04-03T07:02:20.619Z,25.85
2019-04-03T07:07:34.210Z,26.15
2019-04-03T07:12:35.674Z,28.98
2019-04-03T07:17:42.439Z,27.42
2019-04-03T07:22:49.140Z,31.05
2019-04-03T07:27:55.723Z,26.25
2019-04-03T07:33:05.051Z,22.58
2019-04-03T07:38:10.620Z,24.98
2019-04-03T07:43:17.253Z,27.80
2019-04-03T07:48:23.966Z,24.98
2019-04-03T07:53:30.526Z,28.42
2019-04-03T07:58:37.451Z,28.60
2019-04-03T08:03:44.188Z,25.97
2019-04-03T08:09:05.351Z,26.40
2019-04-03T08:13:59.073Z,25.23
2019-04-03T08:19:08.155Z,23.32
2019-04-03T08:24:14.076Z,22.30
2019-04-03T08:29:21.026Z,22.27
2019-04-03T08:34:30.689Z,33.18
2019-04-03T08:39:36.586Z,20.95
2019-04-03T08:44:43.316Z,23.22
2019-04-03T08:49:50.117Z,17.25
2019-04-03T08:54:56.844Z,20.88
2019-04-03T09:00:03.397Z,30.10
2019-04-03T09:05:14.123Z,20.30
2019-04-03T09:10:20.782Z,18.67
2019-04-03T09:15:28.318Z,19.30
2019-04-03T09:20:36.025Z,21.95
2019-04-03T09:25:42.891Z,19.90
2019-04-03T09:30:49.749Z,21.70
2019-04-03T09:35:59.550Z,20.32
2019-04-03T09:41:05.878Z,19.73
2019-04-03T09:46:12.551Z,17.77
2019-04-03T09:51:21.903Z,20.12
2019-04-03T09:56:27.772Z,17.73
2019-04-03T10:01:34.485Z,21.55
2019-04-03T10:06:41.071Z,19.75
2019-04-03T10:11:50.589Z,19.32
2019-04-03T10:16:56.170Z,19.23
2019-04-03T10:22:03.014Z,19.57
2019-04-03T10:27:11.219Z,17.25
2019-04-03T10:32:19.271Z,17.20
2019-04-03T10:37:25.900Z,20.50
2019-04-03T10:42:32.747Z,16.80
2019-04-03T10:47:43.387Z,17.00
2019-04-03T10:52:48.733Z,18.42
2019-04-03T10:57:56.393Z,18.77
2019-04-03T11:03:03.116Z,18.77
2019-04-03T11:08:09.764Z,17.65
2019-04-03T11:13:16.597Z,14.40
2019-04-03T11:18:23.881Z,17.00
2019-04-03T11:23:40.058Z,18.82
2019-04-03T11:28:39.157Z,19.10
2019-04-03T11:33:50.134Z,16.32
2019-04-03T11:39:10.519Z,19.77
2019-04-03T11:44:04.020Z,20.70
2019-04-03T11:49:10.630Z,17.00
2019-04-03T11:54:17.411Z,21.57
2019-04-03T11:59:24.462Z,15.15
2019-04-03T12:04:31.546Z,23.98
2019-04-03T12:09:38.149Z,21.40
2019-04-03T12:14:44.885Z,19.25
2019-04-03T12:19:51.546Z,20.37
2019-04-03T12:24:58.089Z,19.62
2019-04-03T12:30:06.532Z,19.02
2019-04-03T12:35:13.937Z,17.32
2019-04-03T12:40:21.513Z,18.02
2019-04-03T12:45:28.367Z,17.40
2019-04-03T12:50:35.130Z,18.75
2019-04-03T12:55:43.023Z,18.30
2019-04-03T13:00:50.327Z,17.52
2019-04-03T13:05:59.580Z,16.17
2019-04-03T13:11:06.318Z,18.90
2019-04-03T13:16:12.984Z,23.65
2019-04-03T13:21:19.692Z,19.62
2019-04-03T13:26:26.467Z,18.12
2019-04-03T13:31:33.150Z,16.02
2019-04-03T13:36:39.930Z,19.55
2019-04-03T13:41:46.573Z,19.20
2019-04-03T13:46:53.382Z,21.48
2019-04-03T13:52:05.482Z,19.48
2019-04-03T13:57:08.522Z,19.90
2019-04-03T14:02:15.269Z,22.30
2019-04-03T14:07:22.182Z,20.60
2019-04-03T14:12:29.787Z,20.23
2019-04-03T14:17:37.161Z,20.43
2019-04-03T14:22:44.103Z,20.20
2019-04-03T14:27:51.127Z,25.08
2019-04-03T14:32:58.536Z,21.68
2019-04-03T14:38:11.587Z,21.27
2019-04-03T14:43:17.429Z,17.73
2019-04-03T14:48:26.132Z,21.80
2019-04-03T14:53:32.422Z,20.92
2019-04-03T14:58:39.395Z,20.92
2019-04-03T15:03:46.008Z,25.48
2019-04-03T15:08:54.696Z,31.00
2019-04-03T15:14:00.939Z,24.67
2019-04-03T15:19:08.387Z,28.42
2019-04-03T15:24:15.342Z,20.95
2019-04-03T15:29:22.571Z,21.33
2019-04-03T15:34:29.531Z,19.35
2019-04-03T15:39:36.716Z,19.42
2019-04-03T15:44:43.476Z,21.65
2019-04-03T15:49:50.116Z,19.52
2019-04-03T15:54:56.690Z,14.70
2019-04-03T16:00:03.673Z,14.90
2019-04-03T16:05:10.783Z,14.85
2019-04-03T16:10:17.455Z,12.93
2019-04-03T16:15:24.624Z,15.32
2019-04-03T16:20:31.397Z,13.70
2019-04-03T16:25:38.185Z,13.13
2019-04-03T16:30:52.408Z,17.48
2019-04-03T16:35:57.587Z,21.37
2019-04-03T16:41:07.903Z,18.12
2019-04-03T16:46:15.174Z,20.88
2019-04-03T16:51:22.369Z,15.48
2019-04-03T16:56:29.293Z,17.32
2019-04-03T17:01:37.359Z,17.55
2019-04-03T17:06:47.587Z,19.32
2019-04-03T17:11:55.046Z,19.23
2019-04-03T17:17:01.949Z,20.70
2019-04-03T17:22:09.891Z,16.67
2019-04-03T17:27:16.683Z,17.67
2019-04-03T17:32:29.959Z,22.10
2019-04-03T17:37:38.143Z,16.85
2019-04-03T17:42:45.025Z,18.35
2019-04-03T17:47:53.865Z,22.98
2019-04-03T17:53:00.585Z,25.12
2019-04-03T17:58:09.947Z,24.10
2019-04-03T18:03:19.363Z,21.33
2019-04-03T18:08:24.869Z,23.40
2019-04-03T18:13:31.477Z,25.23
2019-04-03T18:18:38.147Z,20.02
2019-04-03T18:23:44.809Z,21.37
2019-04-03T18:28:51.509Z,23.50
2019-04-03T18:33:58.155Z,27.67
2019-04-03T18:39:09.708Z,26.65
2019-04-03T18:44:21.943Z,18.98
2019-04-03T18:49:24.602Z,20.72
2019-04-03T18:54:31.117Z,26.25
2019-04-03T18:59:37.685Z,20.65
2019-04-03T19:04:44.222Z,28.07
2019-04-03T19:09:51.824Z,22.80
2019-04-03T19:15:02.534Z,18.35
2019-04-03T19:20:11.403Z,21.20
2019-04-03T19:25:19.347Z,21.50
2019-04-03T19:30:28.475Z,20.35
2019-04-03T19:35:34.373Z,22.73
2019-04-03T19:40:41.193Z,18.25
2019-04-03T19:45:51.429Z,23.07
2019-04-03T19:50:56.636Z,24.27
2019-04-03T19:56:03.266Z,19.60
2019-04-03T20:01:09.957Z,22.58
2019-04-03T20:06:16.449Z,21.62
2019-04-03T20:11:23.196Z,21.52
2019-04-03T20:16:31.739Z,23.38
2019-04-03T20:21:38.371Z,22.60
2019-04-03T20:26:46.674Z,25.88
2019-04-03T20:31:53.391Z,20.60
2019-04-03T20:37:00.010Z,25.15
2019-04-03T20:42:08.099Z,25.52
2019-04-03T20:47:14.906Z,21.60
2019-04-03T20:52:21.391Z,26.17
2019-04-03T20:57:28.025Z,24.05
2019-04-03T21:02:34.570Z,30.65
2019-04-03T21:07:41.209Z,23.60
2019-04-03T21:12:47.826Z,23.42
2019-04-03T21:17:54.369Z,23.45
2019-04-03T21:23:02.900Z,25.23
2019-04-03T21:28:10.886Z,21.25
2019-04-03T21:33:17.631Z,25.40
2019-04-03T21:38:24.197Z,20.97
2019-04-03T21:43:30.855Z,31.42
2019-04-03T21:48:37.491Z,20.50
2019-04-03T21:53:43.877Z,34.13
2019-04-03T21:58:50.331Z,27.87
2019-04-03T22:03:56.901Z,21.90
2019-04-03T22:09:04.560Z,25.37
2019-04-03T22:14:11.707Z,18.75
2019-04-03T22:19:18.458Z,25.12
2019-04-03T22:24:25.007Z,23.85
2019-04-03T22:29:31.659Z,19.65
2019-04-03T22:34:38.202Z,18.07
2019-04-03T22:39:44.707Z,24.27
2019-04-03T22:44:51.115Z,20.97
2019-04-03T22:49:57.665Z,18.15
2019-04-03T22:55:04.433Z,24.07
2019-04-03T23:00:11.249Z,25.40
2019-04-03T23:05:17.864Z,27.50
2019-04-03T23:10:24.917Z,19.35
2019-04-03T23:15:31.477Z,20.50
2019-04-03T23:20:39.091Z,23.50
2019-04-03T23:25:45.714Z,21.57
2019-04-03T23:30:52.278Z,25.17
2019-04-03T23:35:58.901Z,24.18
2019-04-03T23:41:06.148Z,23.57
2019-04-03T23:46:14.746Z,21.15
2019-04-03T23:51:23.348Z,23.62
2019-04-03T23:56:31.096Z,24.30
